Terminal Aerodrome Forecast
Issued by NWS Paducah, KY

Home | Current Version | Previous Version | Text Only | Print | Product List | Glossary On
Versions: 1 2 3 4 5 6 7 8 9 10 11 12 13 14 15 16 17 18 19 20 21
875
FTUS43 KPAH 262339
TAFPAH
TAF
KPAH 262339Z 2700/2724 04012G22KT P6SM VCTS BKN060 OVC100CB
      TEMPO 2700/2701 4SM -TSRA BR BKN050CB
     FM270100 10008G13KT P6SM VCSH BKN035 OVC120
     FM271000 18010G18KT 5SM -SHRA BR BKN012 OVC080
     FM271600 17013G23KT P6SM SCT035 BKN200
      TEMPO 2721/2724 -SHRA BKN045=

USA.gov is the U.S. government's official web portal to all federal, state and local government web resources and services.